sensor_id;sensor_type;location;lat;lon;timestamp;temperature;humidity
15666;DHT22;20725;51.196;3.510;2022-07-06T00:00:22;12.40;90.80
15666;DHT22;20725;51.196;3.510;2022-07-06T00:02:48;12.30;91.40
15666;DHT22;20725;51.196;3.510;2022-07-06T00:05:15;12.20;90.50
15666;DHT22;20725;51.196;3.510;2022-07-06T00:07:44;12.20;89.10
15666;DHT22;20725;51.196;3.510;2022-07-06T00:10:11;12.20;88.80
15666;DHT22;20725;51.196;3.510;2022-07-06T00:12:38;12.10;88.50
15666;DHT22;20725;51.196;3.510;2022-07-06T00:15:05;12.20;88.50
15666;DHT22;20725;51.196;3.510;2022-07-06T00:17:33;12.10;88.90
15666;DHT22;20725;51.196;3.510;2022-07-06T00:20:00;12.10;88.90
15666;DHT22;20725;51.196;3.510;2022-07-06T00:22:27;12.10;88.70
15666;DHT22;20725;51.196;3.510;2022-07-06T00:24:56;12.10;87.60
15666;DHT22;20725;51.196;3.510;2022-07-06T00:27:23;12.00;89.20
15666;DHT22;20725;51.196;3.510;2022-07-06T00:29:50;12.00;88.80
15666;DHT22;20725;51.196;3.510;2022-07-06T00:32:17;11.90;89.00
15666;DHT22;20725;51.196;3.510;2022-07-06T00:34:44;11.90;89.30
15666;DHT22;20725;51.196;3.510;2022-07-06T00:37:11;12.00;90.40
15666;DHT22;20725;51.196;3.510;2022-07-06T00:39:40;11.90;90.30
15666;DHT22;20725;51.196;3.510;2022-07-06T00:42:09;11.90;90.40
15666;DHT22;20725;51.196;3.510;2022-07-06T00:44:36;11.90;90.50
15666;DHT22;20725;51.196;3.510;2022-07-06T00:47:03;11.80;90.40
15666;DHT22;20725;51.196;3.510;2022-07-06T00:49:31;11.80;90.80
15666;DHT22;20725;51.196;3.510;2022-07-06T00:52:15;11.80;90.90
15666;DHT22;20725;51.196;3.510;2022-07-06T00:54:43;11.80;91.00
15666;DHT22;20725;51.196;3.510;2022-07-06T00:57:11;11.80;90.60
15666;DHT22;20725;51.196;3.510;2022-07-06T00:59:39;11.80;90.20
15666;DHT22;20725;51.196;3.510;2022-07-06T01:02:06;11.80;89.80
15666;DHT22;20725;51.196;3.510;2022-07-06T01:04:33;11.80;90.80
15666;DHT22;20725;51.196;3.510;2022-07-06T01:07:00;11.80;90.90
15666;DHT22;20725;51.196;3.510;2022-07-06T01:09:28;11.80;91.40
15666;DHT22;20725;51.196;3.510;2022-07-06T01:11:55;11.80;91.30
15666;DHT22;20725;51.196;3.510;2022-07-06T01:14:24;11.80;91.10
15666;DHT22;20725;51.196;3.510;2022-07-06T01:16:51;11.70;91.20
15666;DHT22;20725;51.196;3.510;2022-07-06T01:19:18;11.70;90.80
15666;DHT22;20725;51.196;3.510;2022-07-06T01:21:46;11.70;90.20
15666;DHT22;20725;51.196;3.510;2022-07-06T01:24:13;11.70;90.70
15666;DHT22;20725;51.196;3.510;2022-07-06T01:26:40;11.70;91.30
15666;DHT22;20725;51.196;3.510;2022-07-06T01:29:07;11.70;91.60
15666;DHT22;20725;51.196;3.510;2022-07-06T01:31:34;11.70;91.40
15666;DHT22;20725;51.196;3.510;2022-07-06T01:34:01;11.70;91.10
15666;DHT22;20725;51.196;3.510;2022-07-06T01:36:28;11.60;91.00
15666;DHT22;20725;51.196;3.510;2022-07-06T01:38:57;11.60;91.00
15666;DHT22;20725;51.196;3.510;2022-07-06T01:41:24;11.60;91.20
15666;DHT22;20725;51.196;3.510;2022-07-06T01:43:51;11.60;91.30
15666;DHT22;20725;51.196;3.510;2022-07-06T01:46:18;11.60;91.00
15666;DHT22;20725;51.196;3.510;2022-07-06T01:48:46;11.60;91.20
15666;DHT22;20725;51.196;3.510;2022-07-06T01:51:13;11.60;91.60
15666;DHT22;20725;51.196;3.510;2022-07-06T01:53:40;11.50;91.70
15666;DHT22;20725;51.196;3.510;2022-07-06T01:56:10;11.50;91.30
15666;DHT22;20725;51.196;3.510;2022-07-06T01:58:37;11.50;90.70
15666;DHT22;20725;51.196;3.510;2022-07-06T02:01:08;11.40;90.40
15666;DHT22;20725;51.196;3.510;2022-07-06T02:03:35;11.40;91.10
15666;DHT22;20725;51.196;3.510;2022-07-06T02:06:02;11.40;91.30
15666;DHT22;20725;51.196;3.510;2022-07-06T02:08:29;11.40;91.30
15666;DHT22;20725;51.196;3.510;2022-07-06T02:10:56;11.40;92.30
15666;DHT22;20725;51.196;3.510;2022-07-06T02:13:25;11.40;93.20
15666;DHT22;20725;51.196;3.510;2022-07-06T02:15:52;11.40;93.20
15666;DHT22;20725;51.196;3.510;2022-07-06T02:18:20;11.40;92.70
15666;DHT22;20725;51.196;3.510;2022-07-06T02:20:47;11.50;92.20
15666;DHT22;20725;51.196;3.510;2022-07-06T02:23:14;11.40;92.00
15666;DHT22;20725;51.196;3.510;2022-07-06T02:25:41;11.40;92.10
15666;DHT22;20725;51.196;3.510;2022-07-06T02:28:08;11.40;92.20
15666;DHT22;20725;51.196;3.510;2022-07-06T02:30:36;11.30;92.10
15666;DHT22;20725;51.196;3.510;2022-07-06T02:33:03;11.30;91.50
15666;DHT22;20725;51.196;3.510;2022-07-06T02:35:30;11.20;91.80
15666;DHT22;20725;51.196;3.510;2022-07-06T02:37:57;11.20;91.20
15666;DHT22;20725;51.196;3.510;2022-07-06T02:40:24;11.20;91.10
15666;DHT22;20725;51.196;3.510;2022-07-06T02:42:51;11.10;91.30
15666;DHT22;20725;51.196;3.510;2022-07-06T02:45:18;11.10;91.70
15666;DHT22;20725;51.196;3.510;2022-07-06T02:47:47;11.00;91.60
15666;DHT22;20725;51.196;3.510;2022-07-06T02:50:14;11.10;92.10
15666;DHT22;20725;51.196;3.510;2022-07-06T02:52:41;11.00;92.00
15666;DHT22;20725;51.196;3.510;2022-07-06T02:55:08;11.00;92.10
15666;DHT22;20725;51.196;3.510;2022-07-06T02:57:35;11.00;92.00
15666;DHT22;20725;51.196;3.510;2022-07-06T03:00:04;11.00;92.50
15666;DHT22;20725;51.196;3.510;2022-07-06T03:02:31;11.00;92.70
15666;DHT22;20725;51.196;3.510;2022-07-06T03:04:59;11.00;92.60
15666;DHT22;20725;51.196;3.510;2022-07-06T03:07:26;10.90;92.60
15666;DHT22;20725;51.196;3.510;2022-07-06T03:09:53;10.90;92.50
15666;DHT22;20725;51.196;3.510;2022-07-06T03:12:20;10.90;92.70
15666;DHT22;20725;51.196;3.510;2022-07-06T03:14:47;10.90;92.30
15666;DHT22;20725;51.196;3.510;2022-07-06T03:17:15;10.90;91.70
15666;DHT22;20725;51.196;3.510;2022-07-06T03:19:42;10.80;92.00
15666;DHT22;20725;51.196;3.510;2022-07-06T03:22:10;10.80;92.50
15666;DHT22;20725;51.196;3.510;2022-07-06T03:24:37;10.80;92.50
15666;DHT22;20725;51.196;3.510;2022-07-06T03:27:04;10.90;92.70
15666;DHT22;20725;51.196;3.510;2022-07-06T03:29:31;10.90;92.90
15666;DHT22;20725;51.196;3.510;2022-07-06T03:31:58;10.90;92.90
15666;DHT22;20725;51.196;3.510;2022-07-06T03:34:25;10.90;93.00
15666;DHT22;20725;51.196;3.510;2022-07-06T03:36:52;10.90;92.20
15666;DHT22;20725;51.196;3.510;2022-07-06T03:39:21;10.90;92.50
15666;DHT22;20725;51.196;3.510;2022-07-06T03:41:48;10.90;92.50
15666;DHT22;20725;51.196;3.510;2022-07-06T03:44:15;10.90;92.10
15666;DHT22;20725;51.196;3.510;2022-07-06T03:46:42;10.90;91.50
15666;DHT22;20725;51.196;3.510;2022-07-06T03:49:09;10.90;91.60
15666;DHT22;20725;51.196;3.510;2022-07-06T03:51:36;11.00;91.80
15666;DHT22;20725;51.196;3.510;2022-07-06T03:54:05;10.90;92.00
15666;DHT22;20725;51.196;3.510;2022-07-06T03:56:33;10.90;92.00
15666;DHT22;20725;51.196;3.510;2022-07-06T03:59:03;10.90;92.40
15666;DHT22;20725;51.196;3.510;2022-07-06T04:01:30;11.00;92.40
15666;DHT22;20725;51.196;3.510;2022-07-06T04:03:57;11.00;92.80
15666;DHT22;20725;51.196;3.510;2022-07-06T04:06:24;11.10;92.80
15666;DHT22;20725;51.196;3.510;2022-07-06T04:08:52;11.10;92.40
15666;DHT22;20725;51.196;3.510;2022-07-06T04:11:19;11.20;92.70
15666;DHT22;20725;51.196;3.510;2022-07-06T04:13:48;11.30;92.30
15666;DHT22;20725;51.196;3.510;2022-07-06T04:16:15;11.30;92.30
15666;DHT22;20725;51.196;3.510;2022-07-06T04:18:42;11.40;92.00
15666;DHT22;20725;51.196;3.510;2022-07-06T04:21:09;11.40;91.70
15666;DHT22;20725;51.196;3.510;2022-07-06T04:23:36;11.40;92.00
15666;DHT22;20725;51.196;3.510;2022-07-06T04:26:03;11.50;92.30
15666;DHT22;20725;51.196;3.510;2022-07-06T04:28:30;11.50;92.40
15666;DHT22;20725;51.196;3.510;2022-07-06T04:30:58;11.60;92.50
15666;DHT22;20725;51.196;3.510;2022-07-06T04:33:25;11.70;92.40
15666;DHT22;20725;51.196;3.510;2022-07-06T04:35:52;11.80;92.40
15666;DHT22;20725;51.196;3.510;2022-07-06T04:38:19;11.90;92.40
15666;DHT22;20725;51.196;3.510;2022-07-06T04:40:46;11.90;92.70
15666;DHT22;20725;51.196;3.510;2022-07-06T04:43:13;11.90;92.60
15666;DHT22;20725;51.196;3.510;2022-07-06T04:45:40;11.90;92.80
15666;DHT22;20725;51.196;3.510;2022-07-06T04:48:09;12.00;92.80
15666;DHT22;20725;51.196;3.510;2022-07-06T04:50:36;12.20;92.80
15666;DHT22;20725;51.196;3.510;2022-07-06T04:53:03;12.30;92.70
15666;DHT22;20725;51.196;3.510;2022-07-06T04:55:30;12.40;91.90
15666;DHT22;20725;51.196;3.510;2022-07-06T04:57:57;12.50;91.50
15666;DHT22;20725;51.196;3.510;2022-07-06T05:00:24;12.60;91.50
15666;DHT22;20725;51.196;3.510;2022-07-06T05:02:51;12.50;91.80
15666;DHT22;20725;51.196;3.510;2022-07-06T05:05:20;12.70;91.60
15666;DHT22;20725;51.196;3.510;2022-07-06T05:07:47;12.70;91.60
15666;DHT22;20725;51.196;3.510;2022-07-06T05:10:14;12.70;91.80
15666;DHT22;20725;51.196;3.510;2022-07-06T05:12:41;12.90;91.70
15666;DHT22;20725;51.196;3.510;2022-07-06T05:15:08;13.00;91.60
15666;DHT22;20725;51.196;3.510;2022-07-06T05:17:35;13.20;91.70
15666;DHT22;20725;51.196;3.510;2022-07-06T05:20:03;13.40;91.70
15666;DHT22;20725;51.196;3.510;2022-07-06T05:22:32;13.60;91.70
15666;DHT22;20725;51.196;3.510;2022-07-06T05:24:59;13.80;91.50
15666;DHT22;20725;51.196;3.510;2022-07-06T05:27:26;14.00;91.50
15666;DHT22;20725;51.196;3.510;2022-07-06T05:29:53;14.10;91.30
15666;DHT22;20725;51.196;3.510;2022-07-06T05:32:20;14.40;91.10
15666;DHT22;20725;51.196;3.510;2022-07-06T05:34:47;14.70;91.00
15666;DHT22;20725;51.196;3.510;2022-07-06T05:37:16;15.00;90.70
15666;DHT22;20725;51.196;3.510;2022-07-06T05:39:45;15.30;90.30
15666;DHT22;20725;51.196;3.510;2022-07-06T05:42:13;15.50;89.60
15666;DHT22;20725;51.196;3.510;2022-07-06T05:44:40;15.80;88.90
15666;DHT22;20725;51.196;3.510;2022-07-06T05:47:07;16.00;87.60
15666;DHT22;20725;51.196;3.510;2022-07-06T05:49:51;16.30;87.00
15666;DHT22;20725;51.196;3.510;2022-07-06T05:52:36;16.50;86.30
15666;DHT22;20725;51.196;3.510;2022-07-06T05:55:05;16.50;86.10
15666;DHT22;20725;51.196;3.510;2022-07-06T05:57:32;16.70;86.40
15666;DHT22;20725;51.196;3.510;2022-07-06T05:59:59;16.90;85.80
15666;DHT22;20725;51.196;3.510;2022-07-06T06:02:26;16.90;85.50
15666;DHT22;20725;51.196;3.510;2022-07-06T06:04:53;17.30;84.90
15666;DHT22;20725;51.196;3.510;2022-07-06T06:07:20;17.60;83.80
15666;DHT22;20725;51.196;3.510;2022-07-06T06:09:47;18.00;82.90
15666;DHT22;20725;51.196;3.510;2022-07-06T06:12:16;18.50;81.90
15666;DHT22;20725;51.196;3.510;2022-07-06T06:14:43;18.90;79.40
15666;DHT22;20725;51.196;3.510;2022-07-06T06:17:10;18.90;78.00
15666;DHT22;20725;51.196;3.510;2022-07-06T06:19:37;19.20;77.40
15666;DHT22;20725;51.196;3.510;2022-07-06T06:22:04;19.20;75.30
15666;DHT22;20725;51.196;3.510;2022-07-06T06:24:32;19.20;74.00
15666;DHT22;20725;51.196;3.510;2022-07-06T06:26:59;19.20;72.00
15666;DHT22;20725;51.196;3.510;2022-07-06T06:29:28;19.50;73.60
15666;DHT22;20725;51.196;3.510;2022-07-06T06:31:55;20.00;70.80
15666;DHT22;20725;51.196;3.510;2022-07-06T06:34:23;20.60;68.80
15666;DHT22;20725;51.196;3.510;2022-07-06T06:36:50;20.70;66.70
15666;DHT22;20725;51.196;3.510;2022-07-06T06:39:17;20.90;65.00
15666;DHT22;20725;51.196;3.510;2022-07-06T06:41:44;21.10;64.90
15666;DHT22;20725;51.196;3.510;2022-07-06T06:44:11;21.40;64.20
15666;DHT22;20725;51.196;3.510;2022-07-06T06:46:39;21.60;60.50
15666;DHT22;20725;51.196;3.510;2022-07-06T06:49:06;21.90;59.40
15666;DHT22;20725;51.196;3.510;2022-07-06T06:51:33;21.60;58.10
15666;DHT22;20725;51.196;3.510;2022-07-06T06:54:00;21.30;58.80
15666;DHT22;20725;51.196;3.510;2022-07-06T06:56:27;22.00;58.10
15666;DHT22;20725;51.196;3.510;2022-07-06T06:58:54;22.40;56.20
15666;DHT22;20725;51.196;3.510;2022-07-06T07:01:24;22.60;54.00
15666;DHT22;20725;51.196;3.510;2022-07-06T07:03:54;22.50;53.60
15666;DHT22;20725;51.196;3.510;2022-07-06T07:06:22;22.40;53.70
15666;DHT22;20725;51.196;3.510;2022-07-06T07:08:49;23.00;54.10
15666;DHT22;20725;51.196;3.510;2022-07-06T07:11:16;23.70;53.60
15666;DHT22;20725;51.196;3.510;2022-07-06T07:13:46;23.50;50.20
15666;DHT22;20725;51.196;3.510;2022-07-06T07:16:13;23.50;49.70
15666;DHT22;20725;51.196;3.510;2022-07-06T07:18:40;24.00;49.60
15666;DHT22;20725;51.196;3.510;2022-07-06T07:21:09;24.40;48.20
15666;DHT22;20725;51.196;3.510;2022-07-06T07:23:36;24.10;49.10
15666;DHT22;20725;51.196;3.510;2022-07-06T07:26:03;24.70;47.10
15666;DHT22;20725;51.196;3.510;2022-07-06T07:28:32;25.40;46.60
15666;DHT22;20725;51.196;3.510;2022-07-06T07:30:59;25.90;45.00
15666;DHT22;20725;51.196;3.510;2022-07-06T07:33:27;26.60;44.70
15666;DHT22;20725;51.196;3.510;2022-07-06T07:35:54;26.20;44.80
15666;DHT22;20725;51.196;3.510;2022-07-06T07:38:24;26.50;42.00
15666;DHT22;20725;51.196;3.510;2022-07-06T07:40:53;26.70;42.80
15666;DHT22;20725;51.196;3.510;2022-07-06T07:43:20;26.20;41.60
15666;DHT22;20725;51.196;3.510;2022-07-06T07:45:52;25.90;42.70
15666;DHT22;20725;51.196;3.510;2022-07-06T07:48:19;26.40;41.70
15666;DHT22;20725;51.196;3.510;2022-07-06T07:50:46;27.00;41.80
15666;DHT22;20725;51.196;3.510;2022-07-06T07:53:17;27.20;41.10
15666;DHT22;20725;51.196;3.510;2022-07-06T07:55:48;27.20;40.80
15666;DHT22;20725;51.196;3.510;2022-07-06T07:58:15;27.50;38.70
15666;DHT22;20725;51.196;3.510;2022-07-06T08:00:45;28.20;39.60
15666;DHT22;20725;51.196;3.510;2022-07-06T08:03:13;27.70;36.80
15666;DHT22;20725;51.196;3.510;2022-07-06T08:05:40;28.20;37.30
15666;DHT22;20725;51.196;3.510;2022-07-06T08:08:14;28.70;35.60
15666;DHT22;20725;51.196;3.510;2022-07-06T08:10:41;28.80;37.80
15666;DHT22;20725;51.196;3.510;2022-07-06T08:13:09;28.90;37.10
15666;DHT22;20725;51.196;3.510;2022-07-06T08:15:37;28.90;35.00
15666;DHT22;20725;51.196;3.510;2022-07-06T08:18:09;29.40;34.50
15666;DHT22;20725;51.196;3.510;2022-07-06T08:20:37;28.60;33.90
15666;DHT22;20725;51.196;3.510;2022-07-06T08:23:04;28.10;36.70
15666;DHT22;20725;51.196;3.510;2022-07-06T08:25:33;27.90;36.60
15666;DHT22;20725;51.196;3.510;2022-07-06T08:28:00;27.20;36.80
15666;DHT22;20725;51.196;3.510;2022-07-06T08:30:29;27.20;37.60
15666;DHT22;20725;51.196;3.510;2022-07-06T08:32:57;25.90;39.00
15666;DHT22;20725;51.196;3.510;2022-07-06T08:35:24;25.80;40.00
15666;DHT22;20725;51.196;3.510;2022-07-06T08:37:51;25.90;39.40
15666;DHT22;20725;51.196;3.510;2022-07-06T08:40:18;25.70;39.30
15666;DHT22;20725;51.196;3.510;2022-07-06T08:42:47;25.40;40.10
15666;DHT22;20725;51.196;3.510;2022-07-06T08:45:19;25.20;40.80
15666;DHT22;20725;51.196;3.510;2022-07-06T08:47:49;24.70;41.10
15666;DHT22;20725;51.196;3.510;2022-07-06T08:50:16;24.40;43.00
15666;DHT22;20725;51.196;3.510;2022-07-06T08:52:43;24.30;43.10
15666;DHT22;20725;51.196;3.510;2022-07-06T08:55:12;25.30;42.60
15666;DHT22;20725;51.196;3.510;2022-07-06T08:57:39;26.50;40.70
15666;DHT22;20725;51.196;3.510;2022-07-06T09:00:07;27.10;38.80
15666;DHT22;20725;51.196;3.510;2022-07-06T09:02:35;26.60;38.00
15666;DHT22;20725;51.196;3.510;2022-07-06T09:05:05;25.90;39.90
15666;DHT22;20725;51.196;3.510;2022-07-06T09:07:34;26.50;39.90
15666;DHT22;20725;51.196;3.510;2022-07-06T09:10:02;27.20;37.00
15666;DHT22;20725;51.196;3.510;2022-07-06T09:12:31;27.80;38.10
15666;DHT22;20725;51.196;3.510;2022-07-06T09:14:58;27.50;36.80
15666;DHT22;20725;51.196;3.510;2022-07-06T09:17:29;27.20;36.70
15666;DHT22;20725;51.196;3.510;2022-07-06T09:19:57;27.50;36.80
15666;DHT22;20725;51.196;3.510;2022-07-06T09:22:31;27.30;36.30
15666;DHT22;20725;51.196;3.510;2022-07-06T09:25:03;26.80;36.70
15666;DHT22;20725;51.196;3.510;2022-07-06T09:27:36;26.70;37.90
15666;DHT22;20725;51.196;3.510;2022-07-06T09:30:06;26.30;38.70
15666;DHT22;20725;51.196;3.510;2022-07-06T09:32:40;27.30;37.10
15666;DHT22;20725;51.196;3.510;2022-07-06T09:35:08;27.60;36.90
15666;DHT22;20725;51.196;3.510;2022-07-06T09:37:47;28.10;36.20
15666;DHT22;20725;51.196;3.510;2022-07-06T09:40:22;28.70;35.10
15666;DHT22;20725;51.196;3.510;2022-07-06T09:43:14;28.90;35.20
15666;DHT22;20725;51.196;3.510;2022-07-06T09:45:43;30.30;34.10
15666;DHT22;20725;51.196;3.510;2022-07-06T09:48:11;30.90;32.70
15666;DHT22;20725;51.196;3.510;2022-07-06T09:50:40;29.20;33.40
15666;DHT22;20725;51.196;3.510;2022-07-06T09:53:12;28.70;34.90
15666;DHT22;20725;51.196;3.510;2022-07-06T09:55:43;27.60;35.60
15666;DHT22;20725;51.196;3.510;2022-07-06T09:58:13;27.40;36.20
15666;DHT22;20725;51.196;3.510;2022-07-06T10:00:40;27.40;36.20
15666;DHT22;20725;51.196;3.510;2022-07-06T10:03:10;28.00;35.00
15666;DHT22;20725;51.196;3.510;2022-07-06T10:05:43;28.50;35.60
15666;DHT22;20725;51.196;3.510;2022-07-06T10:08:18;29.70;34.30
15666;DHT22;20725;51.196;3.510;2022-07-06T10:10:54;30.20;33.70
15666;DHT22;20725;51.196;3.510;2022-07-06T10:13:24;30.20;32.40
15666;DHT22;20725;51.196;3.510;2022-07-06T10:15:59;30.80;32.10
15666;DHT22;20725;51.196;3.510;2022-07-06T10:18:27;31.00;32.80
15666;DHT22;20725;51.196;3.510;2022-07-06T10:20:56;31.40;29.80
15666;DHT22;20725;51.196;3.510;2022-07-06T10:23:29;32.80;29.70
15666;DHT22;20725;51.196;3.510;2022-07-06T10:26:07;33.90;28.30
15666;DHT22;20725;51.196;3.510;2022-07-06T10:28:42;35.40;27.90
15666;DHT22;20725;51.196;3.510;2022-07-06T10:31:10;36.50;26.60
15666;DHT22;20725;51.196;3.510;2022-07-06T10:33:42;37.30;25.60
15666;DHT22;20725;51.196;3.510;2022-07-06T10:36:13;37.20;24.70
15666;DHT22;20725;51.196;3.510;2022-07-06T10:38:52;36.70;24.60
15666;DHT22;20725;51.196;3.510;2022-07-06T10:41:30;36.50;24.10
15666;DHT22;20725;51.196;3.510;2022-07-06T10:44:17;36.70;23.70
15666;DHT22;20725;51.196;3.510;2022-07-06T10:46:51;36.70;24.50
15666;DHT22;20725;51.196;3.510;2022-07-06T10:49:20;38.00;24.10
15666;DHT22;20725;51.196;3.510;2022-07-06T10:51:48;39.20;23.80
15666;DHT22;20725;51.196;3.510;2022-07-06T10:54:18;39.70;21.30
15666;DHT22;20725;51.196;3.510;2022-07-06T10:56:46;39.10;21.80
15666;DHT22;20725;51.196;3.510;2022-07-06T10:59:15;37.00;22.70
15666;DHT22;20725;51.196;3.510;2022-07-06T11:02:11;37.60;23.50
15666;DHT22;20725;51.196;3.510;2022-07-06T11:04:38;36.50;22.00
15666;DHT22;20725;51.196;3.510;2022-07-06T11:07:12;36.40;24.10
15666;DHT22;20725;51.196;3.510;2022-07-06T11:09:41;39.00;23.00
15666;DHT22;20725;51.196;3.510;2022-07-06T11:12:16;40.80;21.20
15666;DHT22;20725;51.196;3.510;2022-07-06T11:14:44;39.30;20.50
15666;DHT22;20725;51.196;3.510;2022-07-06T11:17:14;38.70;21.10
15666;DHT22;20725;51.196;3.510;2022-07-06T11:19:49;40.60;20.70
15666;DHT22;20725;51.196;3.510;2022-07-06T11:22:17;40.30;19.70
15666;DHT22;20725;51.196;3.510;2022-07-06T11:24:47;41.20;20.80
15666;DHT22;20725;51.196;3.510;2022-07-06T11:27:14;40.90;20.10
15666;DHT22;20725;51.196;3.510;2022-07-06T11:29:42;38.30;20.20
15666;DHT22;20725;51.196;3.510;2022-07-06T11:32:11;40.00;20.90
15666;DHT22;20725;51.196;3.510;2022-07-06T11:34:41;41.60;19.00
15666;DHT22;20725;51.196;3.510;2022-07-06T11:37:11;41.30;19.60
15666;DHT22;20725;51.196;3.510;2022-07-06T11:39:39;43.30;19.40
15666;DHT22;20725;51.196;3.510;2022-07-06T11:42:09;44.10;17.90
15666;DHT22;20725;51.196;3.510;2022-07-06T11:44:41;38.70;19.70
15666;DHT22;20725;51.196;3.510;2022-07-06T11:47:10;40.50;20.40
15666;DHT22;20725;51.196;3.510;2022-07-06T11:49:39;43.20;19.10
15666;DHT22;20725;51.196;3.510;2022-07-06T11:52:16;44.70;18.60
15666;DHT22;20725;51.196;3.510;2022-07-06T11:54:46;45.90;16.60
15666;DHT22;20725;51.196;3.510;2022-07-06T11:57:17;43.80;17.30
15666;DHT22;20725;51.196;3.510;2022-07-06T11:59:49;45.00;16.90
15666;DHT22;20725;51.196;3.510;2022-07-06T12:02:18;46.10;16.50
15666;DHT22;20725;51.196;3.510;2022-07-06T12:04:46;46.60;17.20
15666;DHT22;20725;51.196;3.510;2022-07-06T12:07:16;47.10;16.70
15666;DHT22;20725;51.196;3.510;2022-07-06T12:09:44;48.20;15.30
15666;DHT22;20725;51.196;3.510;2022-07-06T12:12:12;48.20;14.60
15666;DHT22;20725;51.196;3.510;2022-07-06T12:14:41;46.60;14.70
15666;DHT22;20725;51.196;3.510;2022-07-06T12:17:09;44.90;15.20
15666;DHT22;20725;51.196;3.510;2022-07-06T12:19:37;42.90;17.00
15666;DHT22;20725;51.196;3.510;2022-07-06T12:22:06;41.20;18.40
15666;DHT22;20725;51.196;3.510;2022-07-06T12:24:34;41.10;19.00
15666;DHT22;20725;51.196;3.510;2022-07-06T12:27:10;40.50;19.00
15666;DHT22;20725;51.196;3.510;2022-07-06T12:29:39;39.80;19.50
15666;DHT22;20725;51.196;3.510;2022-07-06T12:32:13;39.40;19.80
15666;DHT22;20725;51.196;3.510;2022-07-06T12:34:40;39.00;20.00
15666;DHT22;20725;51.196;3.510;2022-07-06T12:37:09;38.50;20.20
15666;DHT22;20725;51.196;3.510;2022-07-06T12:39:45;38.40;20.90
15666;DHT22;20725;51.196;3.510;2022-07-06T12:42:32;39.80;20.50
15666;DHT22;20725;51.196;3.510;2022-07-06T12:45:00;39.60;19.90
15666;DHT22;20725;51.196;3.510;2022-07-06T12:47:27;38.10;20.70
15666;DHT22;20725;51.196;3.510;2022-07-06T12:50:05;36.30;21.90
15666;DHT22;20725;51.196;3.510;2022-07-06T12:52:33;36.80;22.90
15666;DHT22;20725;51.196;3.510;2022-07-06T12:55:08;36.50;22.70
15666;DHT22;20725;51.196;3.510;2022-07-06T12:57:45;36.50;22.50
15666;DHT22;20725;51.196;3.510;2022-07-06T13:00:15;35.80;23.10
15666;DHT22;20725;51.196;3.510;2022-07-06T13:02:45;35.40;23.40
15666;DHT22;20725;51.196;3.510;2022-07-06T13:05:15;35.40;23.80
15666;DHT22;20725;51.196;3.510;2022-07-06T13:07:46;35.40;24.40
15666;DHT22;20725;51.196;3.510;2022-07-06T13:10:14;35.60;25.20
15666;DHT22;20725;51.196;3.510;2022-07-06T13:12:42;37.40;25.20
15666;DHT22;20725;51.196;3.510;2022-07-06T13:15:14;40.00;23.50
15666;DHT22;20725;51.196;3.510;2022-07-06T13:17:42;40.10;22.30
15666;DHT22;20725;51.196;3.510;2022-07-06T13:20:18;38.80;22.80
15666;DHT22;20725;51.196;3.510;2022-07-06T13:22:46;37.50;23.10
15666;DHT22;20725;51.196;3.510;2022-07-06T13:25:14;37.60;24.50
15666;DHT22;20725;51.196;3.510;2022-07-06T13:27:50;40.20;24.10
15666;DHT22;20725;51.196;3.510;2022-07-06T13:30:19;42.80;21.10
15666;DHT22;20725;51.196;3.510;2022-07-06T13:32:51;42.90;19.60
15666;DHT22;20725;51.196;3.510;2022-07-06T13:35:18;43.50;19.80
15666;DHT22;20725;51.196;3.510;2022-07-06T13:37:45;43.90;19.80
15666;DHT22;20725;51.196;3.510;2022-07-06T13:40:16;43.00;20.00
15666;DHT22;20725;51.196;3.510;2022-07-06T13:42:47;44.20;19.40
15666;DHT22;20725;51.196;3.510;2022-07-06T13:45:16;45.50;18.70
15666;DHT22;20725;51.196;3.510;2022-07-06T13:47:46;46.30;18.10
15666;DHT22;20725;51.196;3.510;2022-07-06T13:50:13;46.10;18.00
15666;DHT22;20725;51.196;3.510;2022-07-06T13:52:40;46.10;18.00
15666;DHT22;20725;51.196;3.510;2022-07-06T13:55:08;45.90;17.20
15666;DHT22;20725;51.196;3.510;2022-07-06T13:57:38;45.90;17.40
15666;DHT22;20725;51.196;3.510;2022-07-06T14:00:08;45.00;17.80
15666;DHT22;20725;51.196;3.510;2022-07-06T14:02:37;43.60;19.00
15666;DHT22;20725;51.196;3.510;2022-07-06T14:05:07;44.80;18.60
15666;DHT22;20725;51.196;3.510;2022-07-06T14:07:34;44.40;17.70
15666;DHT22;20725;51.196;3.510;2022-07-06T14:10:01;42.90;18.70
15666;DHT22;20725;51.196;3.510;2022-07-06T14:12:29;41.20;19.90
15666;DHT22;20725;51.196;3.510;2022-07-06T14:14:56;40.40;20.80
15666;DHT22;20725;51.196;3.510;2022-07-06T14:17:23;40.40;21.00
15666;DHT22;20725;51.196;3.510;2022-07-06T14:19:53;40.80;21.20
15666;DHT22;20725;51.196;3.510;2022-07-06T14:22:23;41.40;20.30
15666;DHT22;20725;51.196;3.510;2022-07-06T14:24:50;42.70;19.70
15666;DHT22;20725;51.196;3.510;2022-07-06T14:27:17;41.60;19.60
15666;DHT22;20725;51.196;3.510;2022-07-06T14:29:53;42.50;19.40
15666;DHT22;20725;51.196;3.510;2022-07-06T14:32:37;43.00;18.80
15666;DHT22;20725;51.196;3.510;2022-07-06T14:39:00;43.60;18.30
15666;DHT22;20725;51.196;3.510;2022-07-06T14:41:27;43.20;17.60
15666;DHT22;20725;51.196;3.510;2022-07-06T14:43:54;42.10;18.50
15666;DHT22;20725;51.196;3.510;2022-07-06T14:46:21;41.40;19.60
15666;DHT22;20725;51.196;3.510;2022-07-06T14:48:48;39.70;19.80
15666;DHT22;20725;51.196;3.510;2022-07-06T14:51:15;37.70;21.70
15666;DHT22;20725;51.196;3.510;2022-07-06T14:53:42;36.30;22.70
15666;DHT22;20725;51.196;3.510;2022-07-06T14:56:11;34.40;23.70
15666;DHT22;20725;51.196;3.510;2022-07-06T14:58:38;33.40;24.50
15666;DHT22;20725;51.196;3.510;2022-07-06T15:01:05;32.90;24.90
15666;DHT22;20725;51.196;3.510;2022-07-06T15:03:32;32.40;24.70
15666;DHT22;20725;51.196;3.510;2022-07-06T15:05:59;32.50;24.70
15666;DHT22;20725;51.196;3.510;2022-07-06T15:08:26;32.30;25.30
15666;DHT22;20725;51.196;3.510;2022-07-06T15:10:55;32.40;25.20
15666;DHT22;20725;51.196;3.510;2022-07-06T15:13:23;31.80;25.60
15666;DHT22;20725;51.196;3.510;2022-07-06T15:15:50;31.60;26.20
15666;DHT22;20725;51.196;3.510;2022-07-06T15:18:18;31.40;26.60
15666;DHT22;20725;51.196;3.510;2022-07-06T15:20:45;31.30;26.40
15666;DHT22;20725;51.196;3.510;2022-07-06T15:23:12;31.20;26.80
15666;DHT22;20725;51.196;3.510;2022-07-06T15:25:39;31.10;27.60
15666;DHT22;20725;51.196;3.510;2022-07-06T15:28:06;31.00;28.60
15666;DHT22;20725;51.196;3.510;2022-07-06T15:30:36;30.60;29.20
15666;DHT22;20725;51.196;3.510;2022-07-06T15:33:06;30.70;29.50
15666;DHT22;20725;51.196;3.510;2022-07-06T15:35:38;30.60;30.00
15666;DHT22;20725;51.196;3.510;2022-07-06T15:38:05;30.00;31.70
15666;DHT22;20725;51.196;3.510;2022-07-06T15:41:03;29.80;32.30
15666;DHT22;20725;51.196;3.510;2022-07-06T15:43:33;29.70;34.40